Meteo Giornale » Osservazioni meteo Italia » Roma Fiumicino

ore: 18:50 - Osservazioni Meteo Roma Fiumicino
Lat. 41° 48' N Lon. 12° 14' E Alt. 2 metri s.l.m.

sereno Europe/Rome

27 °C

Sereno

Temp. 24 Ore

26 °C

32 °C

Ovest

18.5 Km/h

Dew point 17 °C

Umidità 54 %

Visibilità  10 Km

Il sole sorge alle ore 06:03

Il sole tramonta alle ore 20:30

Data e Ora Cielo e Fenomeni T °C DP °C Um. % Pres. hPa Vis. km Vento km/h
Oggi h: 18:50 sereno Sereno 27 17 54 1010 10 O 18.5
Oggi h: 18:20 sereno Sereno 28 17 51 1010 10 O 20.3
Oggi h: 17:50 sereno Sereno 29 17 48 1010 10 O 20.3
Oggi h: 17:20 sereno Sereno 29 18 51 1011 10 O 25.9
Oggi h: 16:50 sereno Sereno 29 19 54 1011 10 O 20.3
Oggi h: 15:50 poco_nuvoloso Poco Nuvoloso 28 23 74 1010 10 O 18.5
Oggi h: 15:20 poco_nuvoloso Poco Nuvoloso 30 22 62 1010 10 O 20.3
Oggi h: 14:50 sereno Sereno 30 21 58 1010 10 O 20.3
Oggi h: 14:20 sereno Sereno 31 20 52 1010 10 SO 22.2
Oggi h: 13:50 poco_nuvoloso Poco Nuvoloso 31 21 55 1010 10 O/SO 24
Oggi h: 13:20 poco_nuvoloso Poco Nuvoloso 31 24 66 1009 10 S/SO 20.3
Oggi h: 12:50 poco_nuvoloso Poco Nuvoloso 31 24 66 1010 10 S 22.2
Oggi h: 12:20 sereno Sereno 31 25 70 1009 10 S 20.3
Oggi h: 11:50 sereno Sereno 31 24 66 1009 10 S 25.9
Oggi h: 11:20 sereno Sereno 32 23 59 1009 10 S 18.5
Oggi h: 10:50 sereno Sereno 32 23 59 1008 10 S 20.3
Oggi h: 10:20 sereno Sereno 31 23 62 1008 10 S 18.5
Oggi h: 09:50 sereno Sereno 31 24 66 1008 10 S/SE 24
Oggi h: 09:20 sereno Sereno 30 24 70 1008 10 S/SE 27.8
Oggi h: 08:50 sereno Sereno 29 24 74 1008 10 S/SE 16.7
Oggi h: 08:20 poco_nuvoloso Poco Nuvoloso 28 22 69 1009 10 S/SE 16.7
Oggi h: 07:50 poco_nuvoloso Poco Nuvoloso 28 21 65 1009 10 S 7.4
Oggi h: 07:20 sereno Sereno 27 21 69 1009 10 S 7.4
Oggi h: 06:50 sereno Sereno 27 22 74 1008 10 N 5.5
Oggi h: 06:20 sereno Sereno 26 22 78 1008 10 S/SE 7.4
Oggi h: 05:50 sereno Sereno 26 22 78 1008 10 S/SE 9.3
Oggi h: 05:20 sereno Sereno 26 23 83 1008 10 SE 11.1
Oggi h: 04:50 sereno Sereno 27 23 78 1008 10 SE 22.2
Oggi h: 04:20 sereno Sereno 27 24 83 1008 10 SE 14.8
Oggi h: 03:50 sereno Sereno 27 24 83 1008 10 SE 22.2
Oggi h: 03:20 sereno Sereno 27 24 83 1007 10 S/SE 25.9
Oggi h: 02:50 sereno Sereno 27 23 78 1008 10 S/SE 35.2
Oggi h: 02:20 sereno Sereno 27 24 83 1009 10 S/SE 29.6
Oggi h: 01:50 nuvoloso Nuvoloso 27 25 88 1008 10 S/SE 37
Oggi h: 01:20 nuvoloso Nuvoloso 27 25 88 1009 10 S/SE 22.2
Oggi h: 00:50 nuvoloso Nuvoloso 27 25 88 1009 10 S/SE 27.8
Oggi h: 00:20 nuvoloso Nuvoloso 27 25 88 1009 10 S/SE 22.2
Ieri h: 23:50 nuvoloso Nuvoloso 26 25 94 1009 10 SE 16.7
Ieri h: 23:20 molto_nuvoloso Molto Nuvoloso 27 25 88 1009 10 SE 20.3
Ieri h: 22:20 nuvoloso Nuvoloso 27 25 88 1009 10 S/SE 16.7
Ieri h: 21:50 nuvoloso Nuvoloso 26 25 94 1009 10 S/SE 18.5
Ieri h: 21:20 nuvoloso Nuvoloso 26 25 94 1009 8 S/SE 13
Ieri h: 20:50 nuvoloso Nuvoloso 27 25 88 1009 8 S 11.1
Ieri h: 20:20 nuvoloso Nuvoloso 27 25 88 1008 10 S/SE 16.7
Ieri h: 19:50 poco_nuvoloso Poco Nuvoloso 27 25 88 1008 10 S 14.8